sensor_id;sensor_type;location;lat;lon;timestamp;pressure;altitude;pressure_sealevel;temperature;humidity
59951;BME280;45812;53.540;9.774;2022-10-17T00:01:53;101976.47;;;12.53;100.00
59951;BME280;45812;53.540;9.774;2022-10-17T00:04:18;101985.31;;;12.53;100.00
59951;BME280;45812;53.540;9.774;2022-10-17T00:06:43;101990.53;;;12.55;100.00
59951;BME280;45812;53.540;9.774;2022-10-17T00:09:08;101995.03;;;12.54;100.00
59951;BME280;45812;53.540;9.774;2022-10-17T00:11:34;101998.22;;;12.58;100.00
59951;BME280;45812;53.540;9.774;2022-10-17T00:13:59;101996.09;;;12.61;100.00
59951;BME280;45812;53.540;9.774;2022-10-17T00:16:28;101999.47;;;12.63;100.00
59951;BME280;45812;53.540;9.774;2022-10-17T00:18:54;102001.19;;;12.64;100.00
59951;BME280;45812;53.540;9.774;2022-10-17T00:21:20;102000.03;;;12.67;100.00
59951;BME280;45812;53.540;9.774;2022-10-17T00:23:46;102000.88;;;12.67;100.00
59951;BME280;45812;53.540;9.774;2022-10-17T00:26:12;102001.56;;;12.69;100.00
59951;BME280;45812;53.540;9.774;2022-10-17T00:28:38;102006.22;;;12.67;100.00
59951;BME280;45812;53.540;9.774;2022-10-17T00:31:05;102013.25;;;12.68;100.00
59951;BME280;45812;53.540;9.774;2022-10-17T00:33:31;102004.25;;;12.69;100.00
59951;BME280;45812;53.540;9.774;2022-10-17T00:36:08;102006.22;;;12.67;100.00
59951;BME280;45812;53.540;9.774;2022-10-17T00:38:35;101993.03;;;12.66;100.00
59951;BME280;45812;53.540;9.774;2022-10-17T00:41:02;101988.50;;;12.66;100.00
59951;BME280;45812;53.540;9.774;2022-10-17T00:43:27;101989.34;;;12.67;100.00
59951;BME280;45812;53.540;9.774;2022-10-17T00:45:54;101986.69;;;12.67;100.00
59951;BME280;45812;53.540;9.774;2022-10-17T00:48:20;102001.56;;;12.69;100.00
59951;BME280;45812;53.540;9.774;2022-10-17T00:50:47;102012.81;;;12.73;100.00
59951;BME280;45812;53.540;9.774;2022-10-17T00:53:14;102013.50;;;12.75;100.00
59951;BME280;45812;53.540;9.774;2022-10-17T00:55:51;102021.34;;;12.77;100.00
59951;BME280;45812;53.540;9.774;2022-10-17T00:58:18;102020.38;;;12.78;100.00
59951;BME280;45812;53.540;9.774;2022-10-17T01:00:46;102021.06;;;12.80;100.00
59951;BME280;45812;53.540;9.774;2022-10-17T01:03:12;102037.66;;;12.83;100.00
59951;BME280;45812;53.540;9.774;2022-10-17T01:05:38;102036.53;;;12.86;100.00
59951;BME280;45812;53.540;9.774;2022-10-17T01:08:05;102040.72;;;12.88;100.00
59951;BME280;45812;53.540;9.774;2022-10-17T01:13:33;102026.91;;;12.93;100.00
59951;BME280;45812;53.540;9.774;2022-10-17T01:16:10;102026.63;;;12.96;100.00
59951;BME280;45812;53.540;9.774;2022-10-17T01:18:49;102019.28;;;12.98;100.00
59951;BME280;45812;53.540;9.774;2022-10-17T01:21:26;102016.31;;;13.01;100.00
59951;BME280;45812;53.540;9.774;2022-10-17T01:32:01;102010.69;;;13.04;100.00
59951;BME280;45812;53.540;9.774;2022-10-17T01:34:32;102008.03;;;13.04;100.00
59951;BME280;45812;53.540;9.774;2022-10-17T01:37:06;101993.66;;;13.05;100.00
59951;BME280;45812;53.540;9.774;2022-10-17T01:39:43;101988.31;;;13.05;100.00
59951;BME280;45812;53.540;9.774;2022-10-17T01:42:18;101984.81;;;13.04;100.00
59951;BME280;45812;53.540;9.774;2022-10-17T01:47:19;101996.03;;;13.08;100.00
59951;BME280;45812;53.540;9.774;2022-10-17T01:49:48;101994.03;;;13.10;100.00
59951;BME280;45812;53.540;9.774;2022-10-17T01:52:21;101985.03;;;13.11;100.00
59951;BME280;45812;53.540;9.774;2022-10-17T01:55:03;101981.38;;;13.12;100.00
59951;BME280;45812;53.540;9.774;2022-10-17T01:57:37;101971.34;;;13.14;100.00
59951;BME280;45812;53.540;9.774;2022-10-17T02:00:07;101970.38;;;13.15;100.00
59951;BME280;45812;53.540;9.774;2022-10-17T02:02:35;101967.00;;;13.13;100.00
59951;BME280;45812;53.540;9.774;2022-10-17T02:05:02;101968.84;;;13.13;100.00
59951;BME280;45812;53.540;9.774;2022-10-17T02:07:27;101964.63;;;13.10;100.00
59951;BME280;45812;53.540;9.774;2022-10-17T02:09:53;101963.66;;;13.11;100.00
59951;BME280;45812;53.540;9.774;2022-10-17T02:15:29;101962.97;;;13.09;100.00
59951;BME280;45812;53.540;9.774;2022-10-17T02:21:02;101951.28;;;13.10;100.00
59951;BME280;45812;53.540;9.774;2022-10-17T02:23:46;101954.63;;;13.12;100.00
59951;BME280;45812;53.540;9.774;2022-10-17T02:26:25;101946.63;;;13.12;100.00
59951;BME280;45812;53.540;9.774;2022-10-17T02:29:04;101945.78;;;13.12;100.00
59951;BME280;45812;53.540;9.774;2022-10-17T02:34:08;101928.06;;;13.11;100.00
59951;BME280;45812;53.540;9.774;2022-10-17T02:36:41;101919.88;;;13.12;100.00
59951;BME280;45812;53.540;9.774;2022-10-17T02:39:10;101927.91;;;13.12;100.00
59951;BME280;45812;53.540;9.774;2022-10-17T02:41:37;101923.25;;;13.14;100.00
59951;BME280;45812;53.540;9.774;2022-10-17T02:44:05;101935.59;;;13.15;100.00
59951;BME280;45812;53.540;9.774;2022-10-17T02:46:32;101918.88;;;13.13;100.00
59951;BME280;45812;53.540;9.774;2022-10-17T02:49:11;101922.09;;;13.17;100.00
59951;BME280;45812;53.540;9.774;2022-10-17T02:52:15;101922.94;;;13.17;100.00
59951;BME280;45812;53.540;9.774;2022-10-17T02:54:46;101918.16;;;13.21;100.00
59951;BME280;45812;53.540;9.774;2022-10-17T02:57:18;101904.81;;;13.21;100.00
59951;BME280;45812;53.540;9.774;2022-10-17T02:59:46;101902.97;;;13.21;100.00
59951;BME280;45812;53.540;9.774;2022-10-17T03:02:12;101899.47;;;13.21;100.00
59951;BME280;45812;53.540;9.774;2022-10-17T03:04:41;101906.63;;;13.20;100.00
59951;BME280;45812;53.540;9.774;2022-10-17T03:07:07;101900.97;;;13.23;100.00
59951;BME280;45812;53.540;9.774;2022-10-17T03:09:32;101906.31;;;13.23;100.00
59951;BME280;45812;53.540;9.774;2022-10-17T03:11:57;101911.69;;;13.23;100.00
59951;BME280;45812;53.540;9.774;2022-10-17T03:14:22;101917.19;;;13.22;100.00
59951;BME280;45812;53.540;9.774;2022-10-17T03:16:48;101908.59;;;13.18;100.00
59951;BME280;45812;53.540;9.774;2022-10-17T03:19:13;101907.34;;;13.13;100.00
59951;BME280;45812;53.540;9.774;2022-10-17T03:21:38;101898.13;;;13.07;100.00
59951;BME280;45812;53.540;9.774;2022-10-17T03:24:04;101895.19;;;13.00;100.00
59951;BME280;45812;53.540;9.774;2022-10-17T03:26:29;101895.97;;;12.93;100.00
59951;BME280;45812;53.540;9.774;2022-10-17T03:28:55;101895.88;;;12.85;100.00
59951;BME280;45812;53.540;9.774;2022-10-17T03:31:20;101895.78;;;12.77;100.00
59951;BME280;45812;53.540;9.774;2022-10-17T03:33:46;101892.19;;;12.68;100.00
59951;BME280;45812;53.540;9.774;2022-10-17T03:36:14;101892.22;;;12.58;100.00
59951;BME280;45812;53.540;9.774;2022-10-17T03:38:41;101886.50;;;12.53;100.00
59951;BME280;45812;53.540;9.774;2022-10-17T03:41:06;101887.94;;;12.48;100.00
59951;BME280;45812;53.540;9.774;2022-10-17T03:43:32;101882.34;;;12.41;100.00
59951;BME280;45812;53.540;9.774;2022-10-17T03:45:58;101888.13;;;12.36;100.00
59951;BME280;45812;53.540;9.774;2022-10-17T03:48:25;101890.94;;;12.35;100.00
59951;BME280;45812;53.540;9.774;2022-10-17T03:50:51;101895.44;;;12.34;100.00
59951;BME280;45812;53.540;9.774;2022-10-17T03:53:16;101894.06;;;12.30;100.00
59951;BME280;45812;53.540;9.774;2022-10-17T03:55:41;101898.84;;;12.27;100.00
59951;BME280;45812;53.540;9.774;2022-10-17T03:58:07;101898.16;;;12.25;100.00
59951;BME280;45812;53.540;9.774;2022-10-17T04:00:34;101899.13;;;12.24;100.00
59951;BME280;45812;53.540;9.774;2022-10-17T04:03:00;101889.59;;;12.21;100.00
59951;BME280;45812;53.540;9.774;2022-10-17T04:05:25;101894.41;;;12.18;100.00
59951;BME280;45812;53.540;9.774;2022-10-17T04:07:50;101892.88;;;12.15;100.00
59951;BME280;45812;53.540;9.774;2022-10-17T04:10:16;101902.56;;;12.16;100.00
59951;BME280;45812;53.540;9.774;2022-10-17T04:12:41;101894.69;;;12.15;100.00
59951;BME280;45812;53.540;9.774;2022-10-17T04:15:07;101899.34;;;12.12;100.00
59951;BME280;45812;53.540;9.774;2022-10-17T04:17:32;101896.13;;;12.09;100.00
59951;BME280;45812;53.540;9.774;2022-10-17T04:19:58;101892.88;;;12.05;100.00
59951;BME280;45812;53.540;9.774;2022-10-17T04:22:23;101879.16;;;12.00;100.00
59951;BME280;45812;53.540;9.774;2022-10-17T04:24:48;101876.63;;;11.99;100.00
59951;BME280;45812;53.540;9.774;2022-10-17T04:27:14;101881.28;;;11.97;100.00
59951;BME280;45812;53.540;9.774;2022-10-17T04:29:39;101875.25;;;11.95;100.00
59951;BME280;45812;53.540;9.774;2022-10-17T04:32:05;101871.03;;;11.92;100.00
59951;BME280;45812;53.540;9.774;2022-10-17T04:34:30;101875.53;;;11.92;100.00
59951;BME280;45812;53.540;9.774;2022-10-17T04:36:55;101874.69;;;11.91;100.00
59951;BME280;45812;53.540;9.774;2022-10-17T04:39:21;101868.63;;;11.89;100.00
59951;BME280;45812;53.540;9.774;2022-10-17T04:41:46;101870.59;;;11.87;100.00
59951;BME280;45812;53.540;9.774;2022-10-17T04:44:11;101872.59;;;11.85;100.00
59951;BME280;45812;53.540;9.774;2022-10-17T04:46:37;101871.88;;;11.83;100.00
59951;BME280;45812;53.540;9.774;2022-10-17T04:49:02;101867.53;;;11.82;100.00
59951;BME280;45812;53.540;9.774;2022-10-17T04:51:27;101872.19;;;11.80;100.00
59951;BME280;45812;53.540;9.774;2022-10-17T04:53:53;101874.00;;;11.79;100.00
59951;BME280;45812;53.540;9.774;2022-10-17T04:56:20;101880.34;;;11.78;100.00
59951;BME280;45812;53.540;9.774;2022-10-17T04:58:46;101875.56;;;11.72;100.00
59951;BME280;45812;53.540;9.774;2022-10-17T05:01:14;101877.50;;;11.70;100.00
59951;BME280;45812;53.540;9.774;2022-10-17T05:03:40;101869.09;;;11.65;100.00
59951;BME280;45812;53.540;9.774;2022-10-17T05:06:07;101867.41;;;11.64;100.00
59951;BME280;45812;53.540;9.774;2022-10-17T05:08:33;101863.22;;;11.62;100.00
59951;BME280;45812;53.540;9.774;2022-10-17T05:10:58;101864.03;;;11.81;100.00
59951;BME280;45812;53.540;9.774;2022-10-17T05:13:24;101852.25;;;11.65;100.00
59951;BME280;45812;53.540;9.774;2022-10-17T05:15:49;101851.84;;;11.60;100.00
59951;BME280;45812;53.540;9.774;2022-10-17T05:18:14;101854.81;;;11.57;100.00
59951;BME280;45812;53.540;9.774;2022-10-17T05:20:40;101850.47;;;11.56;100.00
59951;BME280;45812;53.540;9.774;2022-10-17T05:23:05;101852.28;;;11.55;100.00
59951;BME280;45812;53.540;9.774;2022-10-17T05:25:30;101854.25;;;11.53;100.00
59951;BME280;45812;53.540;9.774;2022-10-17T05:27:56;101863.50;;;11.49;100.00
59951;BME280;45812;53.540;9.774;2022-10-17T05:30:21;101859.84;;;11.50;100.00
59951;BME280;45812;53.540;9.774;2022-10-17T05:32:46;101856.63;;;11.46;100.00
59951;BME280;45812;53.540;9.774;2022-10-17T05:35:12;101859.31;;;11.46;100.00
59951;BME280;45812;53.540;9.774;2022-10-17T05:37:37;101861.13;;;11.46;100.00
59951;BME280;45812;53.540;9.774;2022-10-17T05:40:03;101863.94;;;11.44;100.00
59951;BME280;45812;53.540;9.774;2022-10-17T05:42:28;101860.44;;;11.44;100.00
59951;BME280;45812;53.540;9.774;2022-10-17T05:44:54;101863.94;;;11.44;100.00
59951;BME280;45812;53.540;9.774;2022-10-17T05:47:19;101861.41;;;11.43;100.00
59951;BME280;45812;53.540;9.774;2022-10-17T05:49:44;101857.75;;;11.44;100.00
59951;BME280;45812;53.540;9.774;2022-10-17T05:52:10;101860.56;;;11.42;100.00
59951;BME280;45812;53.540;9.774;2022-10-17T05:54:35;101864.94;;;11.43;100.00
59951;BME280;45812;53.540;9.774;2022-10-17T05:57:00;101864.78;;;11.45;100.00
59951;BME280;45812;53.540;9.774;2022-10-17T05:59:26;101864.78;;;11.45;100.00
59951;BME280;45812;53.540;9.774;2022-10-17T06:01:52;101858.59;;;11.44;100.00
59951;BME280;45812;53.540;9.774;2022-10-17T06:04:17;101856.78;;;11.45;100.00
59951;BME280;45812;53.540;9.774;2022-10-17T06:06:43;101852.13;;;11.47;100.00
59951;BME280;45812;53.540;9.774;2022-10-17T06:09:08;101860.84;;;11.49;100.00
59951;BME280;45812;53.540;9.774;2022-10-17T06:11:34;101857.03;;;11.51;100.00
59951;BME280;45812;53.540;9.774;2022-10-17T06:14:00;101852.28;;;11.55;100.00
59951;BME280;45812;53.540;9.774;2022-10-17T06:16:26;101851.69;;;11.61;100.00
59951;BME280;45812;53.540;9.774;2022-10-17T06:18:51;101853.94;;;11.66;100.00
59951;BME280;45812;53.540;9.774;2022-10-17T06:21:24;101849.88;;;11.71;100.00
59951;BME280;45812;53.540;9.774;2022-10-17T06:23:50;101843.41;;;11.74;100.00
59951;BME280;45812;53.540;9.774;2022-10-17T06:26:15;101845.66;;;11.78;100.00
59951;BME280;45812;53.540;9.774;2022-10-17T06:28:41;101845.34;;;11.81;100.00
59951;BME280;45812;53.540;9.774;2022-10-17T06:31:08;101847.59;;;11.86;100.00
59951;BME280;45812;53.540;9.774;2022-10-17T06:33:34;101843.78;;;11.89;100.00
59951;BME280;45812;53.540;9.774;2022-10-17T06:36:00;101845.19;;;11.93;100.00
59951;BME280;45812;53.540;9.774;2022-10-17T06:38:25;101842.09;;;11.97;100.00
59951;BME280;45812;53.540;9.774;2022-10-17T06:40:51;101854.69;;;12.05;100.00
59951;BME280;45812;53.540;9.774;2022-10-17T06:43:18;101846.81;;;12.13;100.00
59951;BME280;45812;53.540;9.774;2022-10-17T06:45:45;101849.56;;;12.21;100.00
59951;BME280;45812;53.540;9.774;2022-10-17T06:48:10;101843.66;;;12.27;100.00
59951;BME280;45812;53.540;9.774;2022-10-17T06:50:36;101850.06;;;12.34;100.00
59951;BME280;45812;53.540;9.774;2022-10-17T06:53:01;101851.00;;;12.43;100.00
59951;BME280;45812;53.540;9.774;2022-10-17T06:55:27;101850.41;;;12.49;100.00
59951;BME280;45812;53.540;9.774;2022-10-17T06:57:55;101854.84;;;12.58;100.00
59951;BME280;45812;53.540;9.774;2022-10-17T07:00:21;101843.28;;;12.67;100.00
59951;BME280;45812;53.540;9.774;2022-10-17T07:02:47;101845.03;;;12.77;100.00
59951;BME280;45812;53.540;9.774;2022-10-17T07:05:13;101844.66;;;12.89;100.00
59951;BME280;45812;53.540;9.774;2022-10-17T07:07:38;101842.56;;;13.01;100.00
59951;BME280;45812;53.540;9.774;2022-10-17T07:10:04;101843.88;;;13.15;100.00
59951;BME280;45812;53.540;9.774;2022-10-17T07:12:33;101857.25;;;13.32;100.00
59951;BME280;45812;53.540;9.774;2022-10-17T07:14:59;101858.06;;;13.51;100.00
59951;BME280;45812;53.540;9.774;2022-10-17T07:17:24;101872.09;;;13.71;100.00
59951;BME280;45812;53.540;9.774;2022-10-17T07:19:49;101877.75;;;13.93;100.00
59951;BME280;45812;53.540;9.774;2022-10-17T07:22:14;101887.59;;;14.19;100.00
59951;BME280;45812;53.540;9.774;2022-10-17T07:24:40;101880.16;;;14.39;100.00
59951;BME280;45812;53.540;9.774;2022-10-17T07:27:05;101863.31;;;14.46;100.00
59951;BME280;45812;53.540;9.774;2022-10-17T07:29:30;101865.16;;;14.46;100.00
59951;BME280;45812;53.540;9.774;2022-10-17T07:31:56;101874.03;;;14.46;100.00
59951;BME280;45812;53.540;9.774;2022-10-17T07:34:21;101866.66;;;14.48;100.00
59951;BME280;45812;53.540;9.774;2022-10-17T07:36:46;101880.44;;;14.53;100.00
59951;BME280;45812;53.540;9.774;2022-10-17T07:39:12;101883.78;;;14.56;100.00
59951;BME280;45812;53.540;9.774;2022-10-17T07:41:37;101878.41;;;14.56;100.00
59951;BME280;45812;53.540;9.774;2022-10-17T07:44:03;101882.47;;;14.68;100.00
59951;BME280;45812;53.540;9.774;2022-10-17T07:46:28;101878.53;;;14.88;100.00
59951;BME280;45812;53.540;9.774;2022-10-17T07:48:54;101893.97;;;15.19;100.00
59951;BME280;45812;53.540;9.774;2022-10-17T07:51:19;101894.53;;;15.63;100.00
59951;BME280;45812;53.540;9.774;2022-10-17T07:53:46;101890.94;;;16.03;99.00
59951;BME280;45812;53.540;9.774;2022-10-17T07:56:12;101896.81;;;16.46;96.49
59951;BME280;45812;53.540;9.774;2022-10-17T07:58:37;101888.03;;;16.91;94.43
59951;BME280;45812;53.540;9.774;2022-10-17T08:01:05;101883.91;;;17.26;92.81
59951;BME280;45812;53.540;9.774;2022-10-17T08:03:31;101877.81;;;17.55;91.39
59951;BME280;45812;53.540;9.774;2022-10-17T08:06:00;101885.66;;;17.79;89.90
59951;BME280;45812;53.540;9.774;2022-10-17T08:08:26;101877.59;;;17.79;89.53
59951;BME280;45812;53.540;9.774;2022-10-17T08:10:52;101881.94;;;17.80;89.37
59951;BME280;45812;53.540;9.774;2022-10-17T08:13:18;101881.03;;;17.73;89.44
59951;BME280;45812;53.540;9.774;2022-10-17T08:15:43;101883.19;;;17.55;89.82
59951;BME280;45812;53.540;9.774;2022-10-17T08:18:11;101865.22;;;17.47;90.66
59951;BME280;45812;53.540;9.774;2022-10-17T08:20:37;101861.88;;;17.45;90.75
59951;BME280;45812;53.540;9.774;2022-10-17T08:23:03;101856.31;;;17.47;90.84
59951;BME280;45812;53.540;9.774;2022-10-17T08:25:28;101863.22;;;17.64;90.34
59951;BME280;45812;53.540;9.774;2022-10-17T08:27:53;101858.28;;;17.91;89.17
59951;BME280;45812;53.540;9.774;2022-10-17T08:30:18;101859.41;;;18.11;88.55
59951;BME280;45812;53.540;9.774;2022-10-17T08:32:44;101852.22;;;18.18;88.49
59951;BME280;45812;53.540;9.774;2022-10-17T08:35:09;101844.53;;;18.30;88.52
59951;BME280;45812;53.540;9.774;2022-10-17T08:37:35;101840.69;;;18.39;88.27
59951;BME280;45812;53.540;9.774;2022-10-17T08:40:00;101836.78;;;18.41;88.40
59951;BME280;45812;53.540;9.774;2022-10-17T08:42:37;101835.47;;;18.37;88.88
59951;BME280;45812;53.540;9.774;2022-10-17T08:47:58;101843.53;;;18.67;87.65
59951;BME280;45812;53.540;9.774;2022-10-17T08:52:57;101853.06;;;20.11;81.84
59951;BME280;45812;53.540;9.774;2022-10-17T08:55:40;101861.47;;;20.70;79.43
59951;BME280;45812;53.540;9.774;2022-10-17T08:58:12;101866.19;;;21.49;75.92
59951;BME280;45812;53.540;9.774;2022-10-17T09:00:42;101859.63;;;22.16;72.49
59951;BME280;45812;53.540;9.774;2022-10-17T09:03:32;101849.03;;;22.98;69.42
59951;BME280;45812;53.540;9.774;2022-10-17T09:06:32;101843.81;;;22.58;69.26
59951;BME280;45812;53.540;9.774;2022-10-17T09:09:02;101856.88;;;22.29;71.27
59951;BME280;45812;53.540;9.774;2022-10-17T09:11:47;101859.44;;;21.98;72.21
59951;BME280;45812;53.540;9.774;2022-10-17T09:14:29;101859.50;;;21.52;75.32
59951;BME280;45812;53.540;9.774;2022-10-17T09:20:18;101856.06;;;20.77;80.45
59951;BME280;45812;53.540;9.774;2022-10-17T09:25:17;101856.34;;;20.41;82.76
59951;BME280;45812;53.540;9.774;2022-10-17T09:27:47;101863.31;;;20.22;83.32
59951;BME280;45812;53.540;9.774;2022-10-17T09:32:57;101870.28;;;20.03;85.80
59951;BME280;45812;53.540;9.774;2022-10-17T09:35:23;101869.94;;;20.19;85.55
59951;BME280;45812;53.540;9.774;2022-10-17T09:37:49;101858.78;;;20.29;84.62
59951;BME280;45812;53.540;9.774;2022-10-17T09:40:31;101847.88;;;20.50;84.22
59951;BME280;45812;53.540;9.774;2022-10-17T09:42:58;101851.06;;;20.80;82.57
59951;BME280;45812;53.540;9.774;2022-10-17T09:45:27;101850.91;;;21.15;81.63
59951;BME280;45812;53.540;9.774;2022-10-17T09:48:12;101859.09;;;21.61;79.91
59951;BME280;45812;53.540;9.774;2022-10-17T09:50:41;101862.41;;;21.83;78.58
59951;BME280;45812;53.540;9.774;2022-10-17T09:55:45;101862.78;;;21.93;76.96
59951;BME280;45812;53.540;9.774;2022-10-17T09:58:14;101871.69;;;22.27;75.35
59951;BME280;45812;53.540;9.774;2022-10-17T10:00:43;101863.13;;;22.36;75.41
59951;BME280;45812;53.540;9.774;2022-10-17T10:03:24;101866.28;;;22.20;73.96
59951;BME280;45812;53.540;9.774;2022-10-17T10:08:36;101861.94;;;21.99;75.78
59951;BME280;45812;53.540;9.774;2022-10-17T10:11:12;101864.28;;;21.83;76.70
59951;BME280;45812;53.540;9.774;2022-10-17T10:13:38;101868.63;;;21.90;77.28
59951;BME280;45812;53.540;9.774;2022-10-17T10:18:37;101874.88;;;22.17;75.88
59951;BME280;45812;53.540;9.774;2022-10-17T10:21:15;101876.09;;;22.21;75.88
59951;BME280;45812;53.540;9.774;2022-10-17T10:23:45;101886.84;;;22.48;74.81
59951;BME280;45812;53.540;9.774;2022-10-17T10:26:29;101878.34;;;22.82;73.53
59951;BME280;45812;53.540;9.774;2022-10-17T10:29:00;101886.88;;;22.92;71.99
59951;BME280;45812;53.540;9.774;2022-10-17T10:31:36;101884.19;;;22.86;71.43
59951;BME280;45812;53.540;9.774;2022-10-17T10:34:13;101884.03;;;22.74;72.13
59951;BME280;45812;53.540;9.774;2022-10-17T10:37:16;101875.31;;;22.59;73.37
59951;BME280;45812;53.540;9.774;2022-10-17T10:40:06;101884.38;;;22.40;73.83
59951;BME280;45812;53.540;9.774;2022-10-17T10:42:40;101882.78;;;22.12;75.80
59951;BME280;45812;53.540;9.774;2022-10-17T10:45:21;101883.28;;;21.76;76.86
59951;BME280;45812;53.540;9.774;2022-10-17T10:47:55;101890.56;;;21.62;76.78
59951;BME280;45812;53.540;9.774;2022-10-17T10:50:28;101891.81;;;21.53;77.70
59951;BME280;45812;53.540;9.774;2022-10-17T10:55:31;101894.28;;;21.35;80.02
59951;BME280;45812;53.540;9.774;2022-10-17T10:58:19;101898.41;;;21.17;80.23
59951;BME280;45812;53.540;9.774;2022-10-17T11:00:45;101901.91;;;20.98;80.96
59951;BME280;45812;53.540;9.774;2022-10-17T11:03:18;101896.28;;;20.93;81.22
59951;BME280;45812;53.540;9.774;2022-10-17T11:05:59;101886.50;;;20.85;82.21
59951;BME280;45812;53.540;9.774;2022-10-17T11:08:41;101895.81;;;20.76;81.79
59951;BME280;45812;53.540;9.774;2022-10-17T11:11:28;101899.56;;;20.69;82.40
59951;BME280;45812;53.540;9.774;2022-10-17T11:14:07;101894.75;;;20.71;83.50
59951;BME280;45812;53.540;9.774;2022-10-17T11:19:45;101906.91;;;20.88;83.18
59951;BME280;45812;53.540;9.774;2022-10-17T11:22:26;101915.66;;;20.90;82.15
59951;BME280;45812;53.540;9.774;2022-10-17T11:24:57;101908.56;;;20.82;82.00
59951;BME280;45812;53.540;9.774;2022-10-17T11:27:24;101898.56;;;20.96;82.44
59951;BME280;45812;53.540;9.774;2022-10-17T11:29:50;101898.41;;;21.04;82.71
59951;BME280;45812;53.540;9.774;2022-10-17T11:32:18;101895.31;;;21.21;81.66
59951;BME280;45812;53.540;9.774;2022-10-17T11:34:47;101896.94;;;21.02;81.58
59951;BME280;45812;53.540;9.774;2022-10-17T11:37:17;101900.22;;;20.84;82.97
59951;BME280;45812;53.540;9.774;2022-10-17T11:42:47;101887.28;;;20.73;84.60
59951;BME280;45812;53.540;9.774;2022-10-17T11:45:18;101897.69;;;20.69;84.72
59951;BME280;45812;53.540;9.774;2022-10-17T11:47:49;101887.00;;;20.54;84.66
59951;BME280;45812;53.540;9.774;2022-10-17T11:50:21;101893.81;;;20.44;86.17
59951;BME280;45812;53.540;9.774;2022-10-17T11:52:53;101902.06;;;20.29;86.51
59951;BME280;45812;53.540;9.774;2022-10-17T11:55:26;101918.81;;;20.18;87.32
59951;BME280;45812;53.540;9.774;2022-10-17T11:58:02;101920.56;;;19.98;89.25
59951;BME280;45812;53.540;9.774;2022-10-17T12:00:51;101931.03;;;19.79;91.03
59951;BME280;45812;53.540;9.774;2022-10-17T12:03:28;101948.00;;;19.30;94.74
59951;BME280;45812;53.540;9.774;2022-10-17T12:16:59;101949.75;;;17.69;100.00
59951;BME280;45812;53.540;9.774;2022-10-17T12:19:27;101960.47;;;17.46;100.00
59951;BME280;45812;53.540;9.774;2022-10-17T12:22:01;101962.94;;;17.33;100.00
59951;BME280;45812;53.540;9.774;2022-10-17T12:24:39;101963.59;;;17.35;100.00
59951;BME280;45812;53.540;9.774;2022-10-17T12:29:46;101948.66;;;17.33;100.00
59951;BME280;45812;53.540;9.774;2022-10-17T12:32:12;101936.09;;;17.48;100.00
59951;BME280;45812;53.540;9.774;2022-10-17T12:34:39;101948.91;;;17.69;100.00
59951;BME280;45812;53.540;9.774;2022-10-17T12:37:10;101951.78;;;17.82;100.00
59951;BME280;45812;53.540;9.774;2022-10-17T12:42:00;101958.13;;;17.66;100.00
59951;BME280;45812;53.540;9.774;2022-10-17T12:47:25;101966.00;;;17.53;100.00
59951;BME280;45812;53.540;9.774;2022-10-17T13:02:55;101984.28;;;17.12;100.00
59951;BME280;45812;53.540;9.774;2022-10-17T13:05:26;102041.28;;;17.07;100.00
59951;BME280;45812;53.540;9.774;2022-10-17T13:07:54;102101.69;;;16.97;100.00
59951;BME280;45812;53.540;9.774;2022-10-17T13:10:24;102047.13;;;17.19;100.00
59951;BME280;45812;53.540;9.774;2022-10-17T13:12:53;102015.66;;;17.19;100.00
59951;BME280;45812;53.540;9.774;2022-10-17T13:15:23;101969.16;;;17.11;100.00
59951;BME280;45812;53.540;9.774;2022-10-17T13:17:57;101995.88;;;17.12;100.00
59951;BME280;45812;53.540;9.774;2022-10-17T13:20:25;101997.75;;;17.04;100.00
59951;BME280;45812;53.540;9.774;2022-10-17T13:22:52;102008.91;;;16.92;100.00
59951;BME280;45812;53.540;9.774;2022-10-17T13:25:19;101987.59;;;16.83;100.00
59951;BME280;45812;53.540;9.774;2022-10-17T13:27:45;101980.38;;;16.83;100.00
59951;BME280;45812;53.540;9.774;2022-10-17T13:30:26;101975.66;;;16.85;100.00
59951;BME280;45812;53.540;9.774;2022-10-17T13:32:53;101978.69;;;16.82;100.00
59951;BME280;45812;53.540;9.774;2022-10-17T13:35:43;101997.03;;;16.79;100.00
59951;BME280;45812;53.540;9.774;2022-10-17T13:38:11;102008.13;;;16.76;100.00
59951;BME280;45812;53.540;9.774;2022-10-17T13:40:42;102000.56;;;16.71;100.00
59951;BME280;45812;53.540;9.774;2022-10-17T13:43:16;102009.81;;;16.77;100.00
59951;BME280;45812;53.540;9.774;2022-10-17T13:45:52;102016.88;;;16.78;100.00
59951;BME280;45812;53.540;9.774;2022-10-17T13:48:21;102027.81;;;16.68;100.00
59951;BME280;45812;53.540;9.774;2022-10-17T13:50:50;102037.38;;;16.62;100.00
59951;BME280;45812;53.540;9.774;2022-10-17T13:53:25;102032.19;;;16.61;100.00
59951;BME280;45812;53.540;9.774;2022-10-17T13:58:25;102028.81;;;16.59;100.00
59951;BME280;45812;53.540;9.774;2022-10-17T14:00:53;102014.19;;;16.61;100.00
59951;BME280;45812;53.540;9.774;2022-10-17T14:03:20;102009.31;;;16.65;100.00
59951;BME280;45812;53.540;9.774;2022-10-17T14:06:00;102004.28;;;16.70;100.00
59951;BME280;45812;53.540;9.774;2022-10-17T14:08:27;101999.91;;;16.69;100.00
59951;BME280;45812;53.540;9.774;2022-10-17T14:10:52;101998.88;;;16.70;100.00
59951;BME280;45812;53.540;9.774;2022-10-17T14:13:24;101998.41;;;16.75;100.00
59951;BME280;45812;53.540;9.774;2022-10-17T14:15:52;101997.88;;;16.79;100.00
59951;BME280;45812;53.540;9.774;2022-10-17T14:18:23;102003.41;;;16.78;100.00
59951;BME280;45812;53.540;9.774;2022-10-17T14:20:49;102002.88;;;16.82;100.00